Terminal Aerodrome Forecast
Issued by NWS

Home | Current Version | Previous Version | Text Only | Print | Product List | Glossary On
Versions: 1 2 3 4 5 6 7 8 9 10 11 12 13 14
789
FTPA31 PHFO 052337
TAFHLI
TAF
PHLI 052337Z 0600/0624 16009KT P6SM SCT025 SCT045
     FM060500 29005KT P6SM FEW025 SCT045
     FM062000 36015KT P6SM VCSH SCT025 BKN040=

USA.gov is the U.S. government's official web portal to all federal, state and local government web resources and services.